createdAt,value
2022-08-20T00:02:55.244Z,59.91
2022-08-20T00:08:00.376Z,60.72
2022-08-20T00:13:03.323Z,60.86
2022-08-20T00:18:07.149Z,60.33
2022-08-20T00:23:11.881Z,60.08
2022-08-20T00:28:15.149Z,60.99
2022-08-20T00:33:21.382Z,59.92
2022-08-20T00:38:26.359Z,60.02
2022-08-20T00:43:33.289Z,61.08
2022-08-20T00:48:38.741Z,61.03
2022-08-20T00:53:43.082Z,60.69
2022-08-20T00:58:46.227Z,61.02
2022-08-20T01:03:48.935Z,60.96
2022-08-20T01:08:53.404Z,61.48
2022-08-20T01:13:57.535Z,60.79
2022-08-20T01:19:01.346Z,63.10
2022-08-20T01:24:09.418Z,62.73
2022-08-20T01:29:22.085Z,62.55
2022-08-20T01:34:24.730Z,62.74
2022-08-20T01:39:30.806Z,63.04
2022-08-20T01:44:36.055Z,64.60
2022-08-20T01:49:43.910Z,62.75
2022-08-20T01:54:46.983Z,63.37
2022-08-20T01:59:51.577Z,62.50
2022-08-20T02:04:54.245Z,63.62
2022-08-20T02:09:56.920Z,64.37
2022-08-20T02:15:01.021Z,64.67
2022-08-20T02:20:07.512Z,64.51
2022-08-20T02:25:11.369Z,63.95
2022-08-20T02:30:27.566Z,63.87
2022-08-20T02:35:32.198Z,65.39
2022-08-20T02:40:37.521Z,65.41
2022-08-20T02:45:44.511Z,65.53
2022-08-20T02:50:48.933Z,65.11
2022-08-20T02:55:52.312Z,65.74
2022-08-20T03:00:56.793Z,65.66
2022-08-20T03:06:00.387Z,66.41
2022-08-20T03:11:03.180Z,66.17
2022-08-20T03:16:08.274Z,65.89
2022-08-20T03:21:14.641Z,65.71
2022-08-20T03:26:17.624Z,66.12
2022-08-20T03:31:21.635Z,66.41
2022-08-20T03:36:28.023Z,65.87
2022-08-20T03:41:32.127Z,66.57
2022-08-20T03:46:36.151Z,65.78
2022-08-20T03:51:56.099Z,66.80
2022-08-20T03:57:02.820Z,66.00
2022-08-20T04:02:16.560Z,66.18
2022-08-20T04:07:25.547Z,66.87
2022-08-20T04:12:28.263Z,67.37
2022-08-20T04:17:33.456Z,67.07
2022-08-20T04:22:36.850Z,66.89
2022-08-20T04:27:41.764Z,67.40
2022-08-20T04:32:45.851Z,67.29
2022-08-20T04:37:49.275Z,66.52
2022-08-20T04:42:53.294Z,67.57
2022-08-20T04:47:58.184Z,66.65
2022-08-20T04:53:00.991Z,67.24
2022-08-20T04:58:05.658Z,66.13
2022-08-20T05:03:09.773Z,67.05
2022-08-20T05:08:19.632Z,66.71
2022-08-20T05:13:27.189Z,67.62
2022-08-20T05:18:32.884Z,67.16
2022-08-20T05:23:37.287Z,66.97
2022-08-20T05:28:57.372Z,65.55
2022-08-20T05:34:03.053Z,66.52
2022-08-20T05:39:05.759Z,67.46
2022-08-20T05:44:13.137Z,67.28
2022-08-20T05:49:20.078Z,68.01
2022-08-20T05:54:23.892Z,68.38
2022-08-20T05:59:27.552Z,68.61
2022-08-20T06:04:34.228Z,68.72
2022-08-20T06:09:37.009Z,67.63
2022-08-20T06:14:39.718Z,67.68
2022-08-20T06:19:45.281Z,66.30
2022-08-20T06:24:49.715Z,66.72
2022-08-20T06:29:53.302Z,66.89
2022-08-20T06:34:57.400Z,67.07
2022-08-20T06:40:02.674Z,66.65
2022-08-20T06:45:06.222Z,66.44
2022-08-20T06:50:11.898Z,65.71
2022-08-20T06:55:16.306Z,65.39
2022-08-20T07:00:20.922Z,65.65
2022-08-20T07:05:24.938Z,65.29
2022-08-20T07:10:28.530Z,64.83
2022-08-20T07:15:32.217Z,64.76
2022-08-20T07:20:38.344Z,64.36
2022-08-20T07:25:42.377Z,64.80
2022-08-20T07:31:06.541Z,64.39
2022-08-20T07:36:17.613Z,64.19
2022-08-20T07:41:21.010Z,64.04
2022-08-20T07:46:23.746Z,64.12
2022-08-20T07:51:36.609Z,64.21
2022-08-20T07:56:39.312Z,63.88
2022-08-20T08:01:42.205Z,63.95
2022-08-20T08:06:46.303Z,64.03
2022-08-20T08:11:50.977Z,63.63
2022-08-20T08:16:54.880Z,63.98
2022-08-20T08:21:58.967Z,63.89
2022-08-20T08:27:01.713Z,63.63
2022-08-20T08:32:05.657Z,63.53
2022-08-20T08:37:09.723Z,63.84
2022-08-20T08:42:22.477Z,63.83
2022-08-20T08:47:29.280Z,63.53
2022-08-20T08:52:35.845Z,63.82
2022-08-20T08:57:38.510Z,63.22
2022-08-20T09:02:42.491Z,62.99
2022-08-20T09:07:50.186Z,62.77
2022-08-20T09:12:54.114Z,62.57
2022-08-20T09:17:56.985Z,62.50
2022-08-20T09:23:06.217Z,62.07
2022-08-20T09:28:08.875Z,61.88
2022-08-20T09:33:12.658Z,61.44
2022-08-20T09:38:16.824Z,61.75
2022-08-20T09:43:19.568Z,61.51
2022-08-20T09:48:29.722Z,61.26
2022-08-20T09:53:36.502Z,61.51
2022-08-20T09:58:46.381Z,61.45
2022-08-20T10:03:50.392Z,61.78
2022-08-20T10:08:54.424Z,61.25
2022-08-20T10:13:57.137Z,60.68
2022-08-20T10:18:59.785Z,60.87
2022-08-20T10:24:04.289Z,60.85
2022-08-20T10:29:06.987Z,60.27
2022-08-20T10:34:09.880Z,60.45
2022-08-20T10:39:14.259Z,60.02
2022-08-20T10:44:17.638Z,60.09
2022-08-20T10:49:20.360Z,59.73
2022-08-20T10:54:24.995Z,59.67
2022-08-20T10:59:27.722Z,59.06
2022-08-20T11:04:30.428Z,58.59
2022-08-20T11:09:34.578Z,58.30
2022-08-20T11:14:37.332Z,58.18
2022-08-20T11:19:41.536Z,58.14
2022-08-20T11:24:46.061Z,58.10
2022-08-20T11:29:50.084Z,57.85
2022-08-20T11:34:52.989Z,58.19
2022-08-20T11:39:57.078Z,57.86
2022-08-20T11:44:59.839Z,57.59
2022-08-20T11:50:04.731Z,57.63
2022-08-20T11:55:11.441Z,57.44
2022-08-20T12:00:18.190Z,57.33
2022-08-20T12:05:21.470Z,57.90
2022-08-20T12:10:26.791Z,57.70
2022-08-20T12:15:29.756Z,57.43
2022-08-20T12:20:32.490Z,57.38
2022-08-20T12:25:36.591Z,57.22
2022-08-20T12:30:39.454Z,57.06
2022-08-20T12:35:42.273Z,57.06
2022-08-20T12:40:46.635Z,56.59
2022-08-20T12:45:49.392Z,56.43
2022-08-20T12:50:52.725Z,56.10
2022-08-20T12:55:56.850Z,56.20
2022-08-20T13:00:59.608Z,56.05
2022-08-20T13:06:02.655Z,55.90
2022-08-20T13:11:07.014Z,55.61
2022-08-20T13:16:09.798Z,55.38
2022-08-20T13:21:12.479Z,55.29
2022-08-20T13:26:16.553Z,54.97
2022-08-20T13:31:19.307Z,54.81
2022-08-20T13:36:22.853Z,54.50
2022-08-20T13:41:27.103Z,54.01
2022-08-20T13:46:29.859Z,53.97
2022-08-20T13:51:32.575Z,53.44
2022-08-20T13:56:37.060Z,53.28
2022-08-20T14:01:39.934Z,53.79
2022-08-20T14:06:42.826Z,53.30
2022-08-20T14:11:46.857Z,53.59
2022-08-20T14:16:49.549Z,53.23
2022-08-20T14:21:52.478Z,52.83
2022-08-20T14:26:56.498Z,52.39
2022-08-20T14:31:59.173Z,52.91
2022-08-20T14:37:11.760Z,53.13
2022-08-20T14:42:16.071Z,52.99
2022-08-20T14:47:20.625Z,52.38
2022-08-20T14:52:28.259Z,51.69
2022-08-20T14:57:32.750Z,50.55
2022-08-20T15:02:35.750Z,50.49
2022-08-20T15:07:40.610Z,51.36
2022-08-20T15:12:44.839Z,51.56
2022-08-20T15:17:49.258Z,51.08
2022-08-20T15:22:53.526Z,50.43
2022-08-20T15:28:01.725Z,49.69
2022-08-20T15:33:04.922Z,50.69
2022-08-20T15:38:07.807Z,50.15
2022-08-20T15:43:11.836Z,49.97
2022-08-20T15:48:16.739Z,50.51
2022-08-20T15:53:25.834Z,50.26
2022-08-20T15:58:37.386Z,50.13
2022-08-20T16:03:59.085Z,49.34
2022-08-20T16:09:11.704Z,48.99
2022-08-20T16:14:18.693Z,47.69
2022-08-20T16:19:24.479Z,48.84
2022-08-20T16:24:27.165Z,48.48
2022-08-20T16:29:42.861Z,49.02
2022-08-20T16:34:48.421Z,48.80
2022-08-20T16:39:57.183Z,48.48
2022-08-20T16:45:01.614Z,48.86
2022-08-20T16:50:07.486Z,47.63
2022-08-20T16:55:10.838Z,47.61
2022-08-20T17:00:22.134Z,47.70
2022-08-20T17:05:26.485Z,47.61
2022-08-20T17:10:32.973Z,48.15
2022-08-20T17:15:37.179Z,47.88
2022-08-20T17:20:45.296Z,47.82
2022-08-20T17:25:58.052Z,48.65
2022-08-20T17:31:02.114Z,48.49
2022-08-20T17:36:11.084Z,47.26
2022-08-20T17:41:19.320Z,48.14
2022-08-20T17:46:24.487Z,48.21
2022-08-20T17:51:37.748Z,47.84
2022-08-20T17:56:42.030Z,48.23
2022-08-20T18:01:46.191Z,48.55
2022-08-20T18:06:53.345Z,48.55
2022-08-20T18:12:00.750Z,48.89
2022-08-20T18:17:17.614Z,48.31
2022-08-20T18:22:24.603Z,47.76
2022-08-20T18:27:29.986Z,47.59
2022-08-20T18:32:35.949Z,47.56
2022-08-20T18:37:39.059Z,47.70
2022-08-20T18:42:41.961Z,47.89
2022-08-20T18:47:46.762Z,48.04
2022-08-20T18:53:08.530Z,47.89
2022-08-20T18:58:13.210Z,48.64
2022-08-20T19:03:24.621Z,48.81
2022-08-20T19:08:44.397Z,49.43
2022-08-20T19:14:02.286Z,49.18
2022-08-20T19:19:14.580Z,49.67
2022-08-20T19:24:23.641Z,49.78
2022-08-20T19:29:29.178Z,49.81
2022-08-20T19:34:33.818Z,50.26
2022-08-20T19:39:37.402Z,50.85
2022-08-20T19:44:50.967Z,51.00
2022-08-20T19:50:00.711Z,51.66
2022-08-20T19:55:04.231Z,51.47
2022-08-20T20:00:12.223Z,51.15
2022-08-20T20:05:17.718Z,52.18
2022-08-20T20:10:32.301Z,52.25
2022-08-20T20:15:35.661Z,52.44
2022-08-20T20:20:55.754Z,52.52
2022-08-20T20:26:02.247Z,52.70
2022-08-20T20:31:08.640Z,52.76
2022-08-20T20:36:14.032Z,53.05
2022-08-20T20:41:23.009Z,53.23
2022-08-20T20:46:27.557Z,53.51
2022-08-20T20:51:33.952Z,53.66
2022-08-20T20:56:38.777Z,53.55
2022-08-20T21:01:49.851Z,53.63
2022-08-20T21:06:57.305Z,53.72
2022-08-20T21:12:00.100Z,52.96
2022-08-20T21:17:04.847Z,52.92
2022-08-20T21:22:09.372Z,52.71
2022-08-20T21:27:12.674Z,53.31
2022-08-20T21:32:17.380Z,53.01
2022-08-20T21:37:21.381Z,53.25
2022-08-20T21:42:28.930Z,53.53
2022-08-20T21:47:32.244Z,53.75
2022-08-20T21:52:37.884Z,53.50
2022-08-20T21:57:48.473Z,53.52
2022-08-20T22:02:51.267Z,54.07
2022-08-20T22:07:55.356Z,53.99
2022-08-20T22:12:58.227Z,54.71
2022-08-20T22:18:01.076Z,54.63
2022-08-20T22:23:06.838Z,54.84
2022-08-20T22:28:09.599Z,54.37
2022-08-20T22:33:14.382Z,54.95
2022-08-20T22:38:18.581Z,54.84
2022-08-20T22:43:21.792Z,54.94
2022-08-20T22:48:24.541Z,55.59
2022-08-20T22:53:28.819Z,55.79
2022-08-20T22:58:31.606Z,55.80
2022-08-20T23:03:39.658Z,55.99
2022-08-20T23:08:45.366Z,56.02
2022-08-20T23:13:48.708Z,56.04
2022-08-20T23:18:51.405Z,56.25
2022-08-20T23:23:55.483Z,56.59
2022-08-20T23:28:58.179Z,56.67
2022-08-20T23:34:00.845Z,56.75
2022-08-20T23:39:07.436Z,56.55
2022-08-20T23:44:25.327Z,56.67
2022-08-20T23:49:31.390Z,56.68
2022-08-20T23:54:35.638Z,56.90
2022-08-20T23:59:38.291Z,57.54
